createdAt,value
2019-06-07T00:00:50.117Z,12.29
2019-06-07T00:01:49.690Z,12.36
2019-06-07T00:02:49.493Z,12.29
2019-06-07T00:03:49.740Z,12.36
2019-06-07T00:04:49.171Z,12.15
2019-06-07T00:05:49.665Z,12.27
2019-06-07T00:06:49.412Z,12.24
2019-06-07T00:07:49.663Z,12.27
2019-06-07T00:08:49.669Z,12.18
2019-06-07T00:09:49.639Z,12.2
2019-06-07T00:10:49.394Z,12.18
2019-06-07T00:11:49.384Z,12.2
2019-06-07T00:12:49.639Z,12.13
2019-06-07T00:13:49.637Z,12.1
2019-06-07T00:14:49.632Z,12.1
2019-06-07T00:15:49.633Z,12.09
2019-06-07T00:16:49.624Z,12.09
2019-06-07T00:17:49.756Z,11.99
2019-06-07T00:18:49.353Z,12.07
2019-06-07T00:19:50.171Z,11.97
2019-06-07T00:20:49.167Z,12.04
2019-06-07T00:22:33.918Z,11.99
2019-06-07T00:22:49.606Z,11.99
2019-06-07T00:23:49.587Z,11.99
2019-06-07T00:24:49.724Z,11.99
2019-06-07T00:25:49.575Z,11.9
2019-06-07T00:27:02.717Z,11.94
2019-06-07T00:27:49.566Z,11.88
2019-06-07T00:28:49.354Z,11.95
2019-06-07T00:29:49.581Z,11.87
2019-06-07T00:30:57.060Z,11.84
2019-06-07T00:31:49.548Z,11.83
2019-06-07T00:32:49.356Z,11.83
2019-06-07T00:33:49.300Z,11.78
2019-06-07T00:34:49.324Z,11.69
2019-06-07T00:35:49.285Z,11.83
2019-06-07T00:36:49.565Z,11.72
2019-06-07T00:37:49.523Z,11.75
2019-06-07T00:38:49.551Z,11.73
2019-06-07T00:40:17.685Z,11.69
2019-06-07T00:40:49.532Z,11.68
2019-06-07T00:41:49.273Z,11.66
2019-06-07T00:42:49.572Z,11.62
2019-06-07T00:43:49.517Z,11.54
2019-06-07T00:44:49.257Z,11.6
2019-06-07T00:45:49.482Z,11.55
2019-06-07T00:46:49.500Z,11.66
2019-06-07T00:47:49.481Z,11.69
2019-06-07T00:48:49.480Z,11.66
2019-06-07T00:49:49.223Z,11.63
2019-06-07T00:50:49.010Z,11.55
2019-06-07T00:51:56.213Z,11.52
2019-06-07T00:53:32.457Z,11.65
2019-06-07T00:53:49.470Z,11.57
2019-06-07T00:54:49.463Z,11.62
2019-06-07T00:55:49.452Z,11.55
2019-06-07T00:56:49.460Z,11.55
2019-06-07T00:57:49.253Z,11.5
2019-06-07T00:59:06.949Z,11.59
2019-06-07T00:59:49.439Z,11.57
2019-06-07T01:00:49.433Z,11.55
2019-06-07T01:01:49.421Z,11.47
2019-06-07T01:02:49.571Z,11.48
2019-06-07T01:03:49.209Z,11.47
2019-06-07T01:04:49.222Z,11.44
2019-06-07T01:05:49.162Z,11.4
2019-06-07T01:06:49.434Z,11.37
2019-06-07T01:07:49.408Z,11.43
2019-06-07T01:08:49.138Z,11.44
2019-06-07T01:09:49.397Z,11.43
2019-06-07T01:10:58.702Z,11.44
2019-06-07T01:11:49.407Z,11.45
2019-06-07T01:12:49.453Z,11.45
2019-06-07T01:13:49.149Z,11.43
2019-06-07T01:14:49.143Z,11.43
2019-06-07T01:15:49.139Z,11.47
2019-06-07T01:17:39.057Z,11.44
2019-06-07T01:18:53.801Z,11.4
2019-06-07T01:19:48.032Z,11.4
2019-06-07T01:20:48.032Z,11.4
2019-06-07T01:21:47.544Z,11.44
2019-06-07T01:22:47.769Z,11.43
2019-06-07T01:24:17.667Z,11.4
2019-06-07T01:24:47.766Z,11.4
2019-06-07T01:25:47.503Z,11.45
2019-06-07T01:26:48.087Z,11.47
2019-06-07T01:27:47.986Z,11.51
2019-06-07T01:28:48.092Z,11.51
2019-06-07T01:29:47.983Z,11.51
2019-06-07T01:30:47.736Z,11.57
2019-06-07T01:31:48.830Z,11.52
2019-06-07T01:32:48.071Z,11.57
2019-06-07T01:33:55.663Z,11.52
2019-06-07T01:34:47.966Z,11.5
2019-06-07T01:35:47.954Z,11.59
2019-06-07T01:36:47.464Z,11.52
2019-06-07T01:37:47.706Z,11.57
2019-06-07T01:38:47.531Z,11.5
2019-06-07T01:39:47.960Z,11.47
2019-06-07T01:40:47.438Z,11.45
2019-06-07T01:41:47.706Z,11.45
2019-06-07T01:42:50.900Z,11.51
2019-06-07T01:43:47.709Z,11.47
2019-06-07T01:44:47.429Z,11.43
2019-06-07T01:45:47.916Z,11.37
2019-06-07T01:46:47.925Z,11.47
2019-06-07T01:47:47.437Z,11.48
2019-06-07T01:48:54.285Z,11.41
2019-06-07T01:49:47.730Z,11.43
2019-06-07T01:50:47.655Z,11.54
2019-06-07T01:51:47.650Z,11.51
2019-06-07T01:52:47.636Z,11.6
2019-06-07T01:53:47.635Z,11.72
2019-06-07T01:55:02.659Z,11.77
2019-06-07T01:55:53.265Z,11.81
2019-06-07T01:56:53.248Z,11.83
2019-06-07T01:57:53.348Z,11.94
2019-06-07T01:58:52.999Z,11.94
2019-06-07T01:59:53.083Z,11.9
2019-06-07T02:00:52.990Z,11.88
2019-06-07T02:01:53.067Z,11.94
2019-06-07T02:02:53.272Z,11.86
2019-06-07T02:03:53.249Z,11.83
2019-06-07T02:04:53.218Z,11.83
2019-06-07T02:05:52.964Z,11.83
2019-06-07T02:06:52.741Z,11.73
2019-06-07T02:07:53.032Z,11.73
2019-06-07T02:08:53.195Z,11.77
2019-06-07T02:09:52.937Z,11.77
2019-06-07T02:10:53.196Z,11.83
2019-06-07T02:11:53.199Z,11.83
2019-06-07T02:12:53.459Z,11.8
2019-06-07T02:13:53.195Z,11.87
2019-06-07T02:14:53.173Z,11.84
2019-06-07T02:15:52.705Z,11.87
2019-06-07T02:16:52.950Z,11.97
2019-06-07T02:17:52.661Z,12.06
2019-06-07T02:19:06.199Z,11.99
2019-06-07T02:19:52.665Z,12.03
2019-06-07T02:20:52.677Z,11.97
2019-06-07T02:21:53.170Z,12.03
2019-06-07T02:22:52.644Z,11.9
2019-06-07T02:23:53.141Z,11.91
2019-06-07T02:25:50.339Z,11.87
2019-06-07T02:26:00.261Z,11.9
2019-06-07T02:27:00.528Z,11.95
2019-06-07T02:28:46.554Z,11.81
2019-06-07T02:29:00.506Z,11.84
2019-06-07T02:30:08.863Z,11.81
2019-06-07T02:31:05.413Z,11.86
2019-06-07T02:32:04.860Z,11.83
2019-06-07T02:33:05.099Z,11.72
2019-06-07T02:34:05.110Z,11.77
2019-06-07T02:35:04.832Z,11.81
2019-06-07T02:36:05.216Z,11.83
2019-06-07T02:37:04.836Z,11.73
2019-06-07T02:38:04.826Z,11.75
2019-06-07T02:39:05.067Z,11.83
2019-06-07T02:40:05.103Z,11.84
2019-06-07T02:41:05.055Z,11.81
2019-06-07T02:42:04.828Z,11.95
2019-06-07T02:43:07.744Z,11.88
2019-06-07T02:44:05.069Z,11.99
2019-06-07T02:45:05.173Z,11.97
2019-06-07T02:46:47.141Z,12.07
2019-06-07T02:47:05.038Z,12.12
2019-06-07T02:48:04.796Z,12.13
2019-06-07T02:49:04.816Z,12.1
2019-06-07T02:50:05.028Z,12.15
2019-06-07T02:51:05.032Z,12.15
2019-06-07T02:52:05.055Z,12.24
2019-06-07T02:53:05.008Z,12.27
2019-06-07T02:54:04.764Z,12.21
2019-06-07T02:55:05.026Z,12.22
2019-06-07T02:56:59.448Z,12.18
2019-06-07T02:57:09.208Z,12.18
2019-06-07T02:58:09.228Z,12.06
2019-06-07T02:59:08.948Z,12.12
2019-06-07T03:01:08.217Z,12.17
2019-06-07T03:01:19.072Z,12.21
2019-06-07T03:02:18.835Z,12.29
2019-06-07T03:03:19.158Z,12.22
2019-06-07T03:04:19.633Z,12.21
2019-06-07T03:05:18.910Z,12.27
2019-06-07T03:06:19.035Z,12.28
2019-06-07T03:07:19.023Z,12.22
2019-06-07T03:08:18.788Z,12.24
2019-06-07T03:09:18.764Z,12.18
2019-06-07T03:10:19.023Z,12.17
2019-06-07T03:11:18.780Z,12.1
2019-06-07T03:12:19.003Z,12.04
2019-06-07T03:13:19.806Z,12.07
2019-06-07T03:14:18.752Z,12.07
2019-06-07T03:15:49.913Z,12.07
2019-06-07T03:16:18.987Z,12.09
2019-06-07T03:17:19.024Z,12.13
2019-06-07T03:18:18.974Z,12.09
2019-06-07T03:19:18.974Z,12.12
2019-06-07T03:20:18.768Z,12.07
2019-06-07T03:21:20.382Z,12.13
2019-06-07T03:22:18.712Z,12.15
2019-06-07T03:23:18.990Z,12.18
2019-06-07T03:24:18.708Z,12.18
2019-06-07T03:25:18.784Z,12.17
2019-06-07T03:26:18.973Z,12.18
2019-06-07T03:27:50.797Z,12.35
2019-06-07T03:28:18.736Z,12.36
2019-06-07T03:29:18.693Z,12.43
2019-06-07T03:31:03.908Z,12.36
2019-06-07T03:31:18.465Z,12.4
2019-06-07T03:32:18.743Z,12.43
2019-06-07T03:33:18.932Z,12.47
2019-06-07T03:34:18.936Z,12.21
2019-06-07T03:35:18.789Z,12.4
2019-06-07T03:36:31.979Z,12.32
2019-06-07T03:37:18.654Z,12.37
2019-06-07T03:38:18.667Z,12.37
2019-06-07T03:39:18.894Z,12.4
2019-06-07T03:40:18.959Z,12.37
2019-06-07T03:41:18.894Z,12.37
2019-06-07T03:42:18.886Z,12.5
2019-06-07T03:43:18.786Z,12.53
2019-06-07T03:44:18.646Z,12.5
2019-06-07T03:45:18.882Z,12.47
2019-06-07T03:46:18.644Z,12.49
2019-06-07T03:47:18.882Z,12.58
2019-06-07T03:48:18.889Z,12.46
2019-06-07T03:49:18.625Z,12.54
2019-06-07T03:50:18.994Z,12.47
2019-06-07T03:51:32.806Z,12.46
2019-06-07T03:52:18.846Z,12.55
2019-06-07T03:53:18.361Z,12.57
2019-06-07T03:54:18.348Z,12.61
2019-06-07T03:55:18.869Z,12.62
2019-06-07T03:56:20.148Z,12.64
2019-06-07T03:57:18.594Z,12.67
2019-06-07T03:58:50.963Z,12.61
2019-06-07T03:59:18.834Z,12.68
2019-06-07T04:00:18.889Z,12.72
2019-06-07T04:01:18.586Z,12.73
2019-06-07T04:02:18.586Z,12.62
2019-06-07T04:03:51.555Z,12.62
2019-06-07T04:04:18.828Z,12.72
2019-06-07T04:05:18.898Z,12.61
2019-06-07T04:06:18.572Z,12.65
2019-06-07T04:07:18.830Z,12.6
2019-06-07T04:08:18.343Z,12.5
2019-06-07T04:09:18.572Z,12.55
2019-06-07T04:10:18.637Z,12.53
2019-06-07T04:11:18.788Z,12.57
2019-06-07T04:12:18.291Z,12.68
2019-06-07T04:13:18.530Z,12.7
2019-06-07T04:14:18.837Z,12.76
2019-06-07T04:15:18.580Z,12.8
2019-06-07T04:16:18.541Z,12.9
2019-06-07T04:17:18.793Z,13.08
2019-06-07T04:18:18.798Z,13.25
2019-06-07T04:19:18.768Z,13.5
2019-06-07T04:20:18.380Z,13.7
2019-06-07T04:21:18.795Z,14.05
2019-06-07T04:22:18.341Z,14.3
2019-06-07T04:23:41.549Z,14.68
2019-06-07T04:24:18.759Z,14.77
2019-06-07T04:25:18.758Z,15.02
2019-06-07T04:26:18.560Z,15.22
2019-06-07T04:27:18.750Z,15.39
2019-06-07T04:28:18.742Z,15.55
2019-06-07T04:30:08.748Z,15.61
2019-06-07T04:30:18.797Z,15.62
2019-06-07T04:31:18.636Z,15.68
2019-06-07T04:32:18.749Z,15.76
2019-06-07T04:33:18.505Z,15.91
2019-06-07T04:34:18.748Z,16.01
2019-06-07T04:35:18.893Z,16.01
2019-06-07T04:36:37.288Z,16.08
2019-06-07T04:37:18.503Z,16.23
2019-06-07T04:38:18.757Z,16.35
2019-06-07T04:39:19.698Z,16.56
2019-06-07T04:40:18.552Z,16.71
2019-06-07T04:41:18.742Z,16.79
2019-06-07T04:42:18.806Z,16.99
2019-06-07T04:43:18.554Z,17.04
2019-06-07T04:44:18.811Z,17.19
2019-06-07T04:45:51.002Z,17.39
2019-06-07T04:46:18.520Z,17.46
2019-06-07T04:47:18.790Z,17.49
2019-06-07T04:48:18.748Z,17.68
2019-06-07T04:49:18.555Z,17.76
2019-06-07T04:50:18.683Z,17.87
2019-06-07T04:51:18.995Z,18.04
2019-06-07T04:52:18.630Z,18.26
2019-06-07T04:53:18.643Z,18.34
2019-06-07T04:54:18.758Z,18.52
2019-06-07T04:55:18.582Z,18.65
2019-06-07T04:56:18.266Z,18.66
2019-06-07T04:57:18.822Z,18.7
2019-06-07T04:58:18.763Z,18.6
2019-06-07T05:00:56.157Z,18.59
2019-06-07T05:01:34.785Z,18.6
2019-06-07T05:02:17.315Z,18.56
2019-06-07T05:03:17.646Z,18.68
2019-06-07T05:04:17.600Z,18.74
2019-06-07T05:05:17.401Z,18.89
2019-06-07T05:06:17.587Z,18.93
2019-06-07T05:07:17.611Z,19.02
2019-06-07T05:08:36.172Z,19.12
2019-06-07T05:09:17.675Z,19.24
2019-06-07T05:10:18.155Z,19.41
2019-06-07T05:11:17.603Z,19.14
2019-06-07T05:12:17.596Z,18.88
2019-06-07T05:13:17.110Z,18.58
2019-06-07T05:14:17.355Z,18.56
2019-06-07T05:15:18.508Z,18.37
2019-06-07T05:16:17.656Z,18.26
2019-06-07T05:17:17.685Z,18.19
2019-06-07T05:18:17.614Z,18.28
2019-06-07T05:19:17.377Z,18.34
2019-06-07T05:20:18.595Z,18.28
2019-06-07T05:21:17.645Z,18.2
2019-06-07T05:22:17.392Z,18.31
2019-06-07T05:24:12.468Z,18.58
2019-06-07T05:24:22.192Z,18.55
2019-06-07T05:25:22.191Z,18.88
2019-06-07T05:26:22.515Z,19.12
2019-06-07T05:27:22.195Z,19.45
2019-06-07T05:28:22.447Z,19.81
2019-06-07T05:29:22.449Z,19.94
2019-06-07T05:31:08.086Z,20.26
2019-06-07T05:31:22.458Z,20.28
2019-06-07T05:32:22.231Z,20.29
2019-06-07T05:33:22.601Z,20.41
2019-06-07T05:34:22.014Z,20.69
2019-06-07T05:35:22.568Z,20.82
2019-06-07T05:36:22.470Z,20.85
2019-06-07T05:37:22.252Z,20.85
2019-06-07T05:38:22.235Z,20.78
2019-06-07T05:39:22.526Z,21.05
2019-06-07T05:40:23.941Z,21.37
2019-06-07T05:41:22.494Z,21.36
2019-06-07T05:42:22.524Z,21.5
2019-06-07T05:43:22.582Z,21.62
2019-06-07T05:44:22.316Z,21.92
2019-06-07T05:45:22.685Z,21.98
2019-06-07T05:46:22.071Z,22.02
2019-06-07T05:47:22.539Z,22.04
2019-06-07T05:48:22.273Z,22.23
2019-06-07T05:49:22.276Z,22.23
2019-06-07T05:50:58.018Z,22.33
2019-06-07T05:51:22.283Z,22.26
2019-06-07T05:52:22.050Z,21.95
2019-06-07T05:53:22.725Z,21.25
2019-06-07T05:54:22.295Z,20.69
2019-06-07T05:55:22.571Z,20.55
2019-06-07T05:56:22.602Z,20.77
2019-06-07T05:57:22.325Z,21.07
2019-06-07T05:58:22.624Z,21.43
2019-06-07T05:59:22.096Z,21.61
2019-06-07T06:00:22.420Z,21.69
2019-06-07T06:02:21.672Z,21.48
2019-06-07T06:02:38.526Z,21.52
2019-06-07T06:03:34.965Z,21.4
2019-06-07T06:04:33.733Z,21.5
2019-06-07T06:05:54.821Z,21.79
2019-06-07T06:06:33.782Z,21.98
2019-06-07T06:07:34.715Z,22.2
2019-06-07T06:08:36.074Z,22.45
2019-06-07T06:09:32.212Z,22.69
2019-06-07T06:10:31.958Z,22.69
2019-06-07T06:12:04.056Z,22.7
2019-06-07T06:12:51.605Z,22.68
2019-06-07T06:13:32.506Z,22.68
2019-06-07T06:14:32.242Z,22.63
2019-06-07T06:16:04.110Z,22.78
2019-06-07T06:16:33.060Z,22.85
2019-06-07T06:17:32.252Z,22.96
2019-06-07T06:18:32.540Z,22.84
2019-06-07T06:19:32.054Z,22.8
2019-06-07T06:21:17.148Z,22.63
2019-06-07T06:21:32.272Z,22.65
2019-06-07T06:22:32.530Z,22.62
2019-06-07T06:23:32.302Z,22.44
2019-06-07T06:24:32.056Z,22.65
2019-06-07T06:25:38.412Z,22.75
2019-06-07T06:26:32.131Z,22.98
2019-06-07T06:28:16.008Z,23.55
2019-06-07T06:28:32.577Z,23.65
2019-06-07T06:29:32.321Z,23.98
2019-06-07T06:30:32.344Z,24.17
2019-06-07T06:31:32.088Z,24.53
2019-06-07T06:32:59.913Z,24.89
2019-06-07T06:33:39.935Z,25.11
2019-06-07T06:34:32.469Z,25.47
2019-06-07T06:35:32.377Z,25.85
2019-06-07T06:36:32.390Z,25.73
2019-06-07T06:37:32.614Z,25.7
2019-06-07T06:38:33.888Z,25.53
2019-06-07T06:39:32.634Z,25.4
2019-06-07T06:40:32.401Z,25.4
2019-06-07T06:41:46.039Z,25.33
2019-06-07T06:42:32.645Z,25.18
2019-06-07T06:43:32.450Z,25.26
2019-06-07T06:44:32.664Z,25.33
2019-06-07T06:45:32.430Z,25.55
2019-06-07T06:46:57.167Z,25.32
2019-06-07T06:47:32.216Z,25.32
2019-06-07T06:48:32.435Z,25.28
2019-06-07T06:49:32.744Z,25.21
2019-06-07T06:50:32.458Z,25.44
2019-06-07T06:51:32.716Z,25.47
2019-06-07T06:52:32.721Z,25.04
2019-06-07T06:53:32.228Z,24.84
2019-06-07T06:55:00.365Z,24.92
2019-06-07T06:55:32.505Z,25.08
2019-06-07T06:56:32.743Z,25.14
2019-06-07T06:57:32.756Z,25.13
2019-06-07T06:59:37.834Z,24.99
2019-06-07T06:59:57.212Z,25.07
2019-06-07T07:01:10.069Z,25.03
2019-06-07T07:01:57.406Z,24.95
2019-06-07T07:04:12.605Z,24.51
2019-06-07T07:04:23.154Z,24.54
2019-06-07T07:05:22.670Z,24.29
2019-06-07T07:06:30.804Z,24.11
2019-06-07T07:07:22.923Z,23.8
2019-06-07T07:08:22.706Z,23.65
2019-06-07T07:09:22.948Z,23.92
2019-06-07T07:10:23.044Z,24.05
2019-06-07T07:11:27.963Z,24.47
2019-06-07T07:12:23.356Z,24.66
2019-06-07T07:13:22.705Z,24.6
2019-06-07T07:14:23.248Z,24.32
2019-06-07T07:15:23.004Z,24.5
2019-06-07T07:16:23.228Z,24.74
2019-06-07T07:18:03.396Z,24.96
2019-06-07T07:18:23.267Z,25.18
2019-06-07T07:19:23.266Z,25.33
2019-06-07T07:20:23.099Z,25.6
2019-06-07T07:21:23.010Z,25.96
2019-06-07T07:22:23.382Z,25.93
2019-06-07T07:23:22.770Z,25.88
2019-06-07T07:24:26.737Z,25.98
2019-06-07T07:25:22.766Z,26.16
2019-06-07T07:26:23.285Z,26.48
2019-06-07T07:27:23.287Z,26.97
2019-06-07T07:28:23.049Z,27.29
2019-06-07T07:29:23.372Z,27.45
2019-06-07T07:30:47.074Z,27.39
2019-06-07T07:31:22.824Z,27.27
2019-06-07T07:32:23.149Z,27.08
2019-06-07T07:33:22.831Z,27.2
2019-06-07T07:34:39.912Z,26.97
2019-06-07T07:35:25.801Z,26.99
2019-06-07T07:36:44.721Z,27.18
2019-06-07T07:37:26.105Z,27.25
2019-06-07T07:38:25.556Z,27.64
2019-06-07T07:39:25.623Z,27.47
2019-06-07T07:41:17.015Z,27.22
2019-06-07T07:41:26.171Z,27.11
2019-06-07T07:42:26.311Z,26.68
2019-06-07T07:43:26.532Z,26.52
2019-06-07T07:44:26.705Z,26.62
2019-06-07T07:45:26.467Z,26.74
2019-06-07T07:46:35.446Z,26.92
2019-06-07T07:47:26.711Z,27.08
2019-06-07T07:48:26.724Z,27.08
2019-06-07T07:49:26.476Z,27.02
2019-06-07T07:50:26.535Z,26.77
2019-06-07T07:51:26.744Z,26.68
2019-06-07T07:52:26.503Z,27.02
2019-06-07T07:53:45.282Z,27.12
2019-06-07T07:54:26.507Z,27.37
2019-06-07T07:55:26.986Z,27.65
2019-06-07T07:56:26.764Z,27.73
2019-06-07T07:57:26.528Z,27.73
2019-06-07T07:58:26.535Z,27.87
2019-06-07T08:00:36.679Z,28.04
2019-06-07T08:01:16.488Z,28.1
2019-06-07T08:02:16.226Z,28.27
2019-06-07T08:03:16.502Z,28.49
2019-06-07T08:04:16.243Z,28.82
2019-06-07T08:05:46.959Z,28.79
2019-06-07T08:06:21.035Z,28.66
2019-06-07T08:07:21.284Z,28.72
2019-06-07T08:08:21.664Z,28.72
2019-06-07T08:09:21.557Z,28.59
2019-06-07T08:10:21.338Z,28.47
2019-06-07T08:11:21.326Z,28.42
2019-06-07T08:12:21.395Z,28.33
2019-06-07T08:13:30.965Z,28.19
2019-06-07T08:14:21.588Z,28.12
2019-06-07T08:15:21.182Z,28.1
2019-06-07T08:16:23.739Z,28.29
2019-06-07T08:17:21.095Z,28.44
2019-06-07T08:18:21.627Z,28.49
2019-06-07T08:19:21.143Z,28.45
2019-06-07T08:20:21.466Z,28.57
2019-06-07T08:21:29.975Z,28.59
2019-06-07T08:22:21.388Z,28.42
2019-06-07T08:23:21.393Z,28.17
2019-06-07T08:24:21.732Z,28.17
2019-06-07T08:25:21.285Z,28.19
2019-06-07T08:26:21.464Z,28.23
2019-06-07T08:27:31.136Z,28.37
2019-06-07T08:28:21.455Z,28.29
2019-06-07T08:29:21.512Z,28.26
2019-06-07T08:31:05.709Z,28.12
2019-06-07T08:31:21.686Z,28.12
2019-06-07T08:32:21.446Z,28.3
2019-06-07T08:33:30.789Z,28.54
2019-06-07T08:34:21.465Z,28.86
2019-06-07T08:36:40.662Z,29.07
2019-06-07T08:36:54.751Z,29.04
2019-06-07T08:38:47.319Z,29.27
2019-06-07T08:39:12.444Z,29.42
2019-06-07T08:40:11.699Z,29.76
2019-06-07T08:41:16.768Z,29.91
2019-06-07T08:42:59.698Z,30.15
2019-06-07T08:43:27.039Z,30.16
2019-06-07T08:44:30.265Z,30.13
2019-06-07T08:45:26.811Z,29.54
2019-06-07T08:46:26.795Z,29.02
2019-06-07T08:47:27.052Z,28.94
2019-06-07T08:48:32.961Z,28.76
2019-06-07T08:49:27.123Z,28.91
2019-06-07T08:50:27.082Z,28.75
2019-06-07T08:51:26.830Z,28.62
2019-06-07T08:52:26.852Z,28.37
2019-06-07T08:53:26.602Z,28.1
2019-06-07T08:54:28.289Z,27.85
2019-06-07T08:55:26.904Z,27.63
2019-06-07T08:56:26.896Z,27.27
2019-06-07T08:57:26.877Z,26.88
2019-06-07T08:58:27.220Z,26.55
2019-06-07T08:59:27.136Z,26.26
2019-06-07T09:00:51.364Z,25.81
2019-06-07T09:01:26.932Z,25.63
2019-06-07T09:02:28.567Z,25.26
2019-06-07T09:03:27.164Z,24.95
2019-06-07T09:04:27.179Z,24.63
2019-06-07T09:05:26.689Z,24.43
2019-06-07T09:07:19.419Z,24.32
2019-06-07T09:07:30.004Z,24.35
2019-06-07T09:08:35.458Z,24.39
2019-06-07T09:09:30.104Z,24.39
2019-06-07T09:10:29.563Z,24.53
2019-06-07T09:11:29.834Z,24.61
2019-06-07T09:12:29.763Z,24.48
2019-06-07T09:13:30.000Z,24.58
2019-06-07T09:14:29.788Z,24.47
2019-06-07T09:15:29.778Z,24.18
2019-06-07T09:16:29.782Z,23.99
2019-06-07T09:17:30.040Z,23.8
2019-06-07T09:18:49.945Z,23.74
2019-06-07T09:19:29.790Z,23.71
2019-06-07T09:20:41.205Z,23.76
2019-06-07T09:21:29.547Z,23.91
2019-06-07T09:22:30.060Z,23.91
2019-06-07T09:23:29.810Z,23.87
2019-06-07T09:24:30.064Z,23.95
2019-06-07T09:25:29.843Z,24.03
2019-06-07T09:26:30.086Z,24.13
2019-06-07T09:27:30.075Z,24.13
2019-06-07T09:28:29.849Z,24.2
2019-06-07T09:29:29.836Z,24.48
2019-06-07T09:30:29.610Z,24.39
2019-06-07T09:31:54.179Z,24.54
2019-06-07T09:32:29.846Z,24.51
2019-06-07T09:33:29.848Z,24.66
2019-06-07T09:34:30.108Z,24.74
2019-06-07T09:35:30.112Z,24.69
2019-06-07T09:36:30.182Z,24.61
2019-06-07T09:38:26.630Z,24.68
2019-06-07T09:38:36.018Z,24.69
2019-06-07T09:39:36.089Z,24.63
2019-06-07T09:40:36.281Z,24.57
2019-06-07T09:41:52.943Z,24.58
2019-06-07T09:42:36.532Z,24.76
2019-06-07T09:44:26.256Z,24.61
2019-06-07T09:44:36.321Z,24.58
2019-06-07T09:45:36.557Z,24.63
2019-06-07T09:46:36.316Z,24.61
2019-06-07T09:47:37.954Z,24.53
2019-06-07T09:49:33.570Z,24.51
2019-06-07T09:49:43.097Z,24.54
2019-06-07T09:50:43.490Z,24.53
2019-06-07T09:51:43.406Z,24.45
2019-06-07T09:53:22.168Z,24.5
2019-06-07T09:53:43.367Z,24.55
2019-06-07T09:55:26.009Z,24.69
2019-06-07T09:55:43.648Z,24.69
2019-06-07T09:56:43.645Z,24.85
2019-06-07T09:57:43.402Z,24.88
2019-06-07T09:59:03.615Z,25.03
2019-06-07T09:59:43.163Z,25.14
2019-06-07T10:00:47.365Z,25.22
2019-06-07T10:01:43.655Z,25.32
2019-06-07T10:02:43.416Z,25.48
2019-06-07T10:03:43.647Z,25.26
2019-06-07T10:04:43.416Z,25.4
2019-06-07T10:05:43.662Z,25.41
2019-06-07T10:06:43.706Z,25.38
2019-06-07T10:09:26.086Z,25.26
2019-06-07T10:11:34.363Z,24.89
2019-06-07T10:12:34.603Z,24.84
2019-06-07T10:13:34.672Z,24.86
2019-06-07T10:14:34.623Z,24.85
2019-06-07T10:15:34.618Z,24.93
2019-06-07T10:16:51.200Z,25.03
2019-06-07T10:17:34.638Z,24.96
2019-06-07T10:18:34.630Z,25.13
2019-06-07T10:19:34.658Z,25.21
2019-06-07T10:20:34.396Z,25.32
2019-06-07T10:21:34.655Z,25.5
2019-06-07T10:22:34.667Z,25.59
2019-06-07T10:23:34.167Z,25.69
2019-06-07T10:24:34.428Z,25.77
2019-06-07T10:25:34.400Z,25.66
2019-06-07T10:26:34.642Z,25.44
2019-06-07T10:27:34.648Z,25.4
2019-06-07T10:28:34.424Z,25.4
2019-06-07T10:29:34.674Z,25.41
2019-06-07T10:30:34.192Z,25.33
2019-06-07T10:31:34.434Z,25.51
2019-06-07T10:32:34.694Z,25.55
2019-06-07T10:33:34.437Z,25.5
2019-06-07T10:34:34.683Z,25.54
2019-06-07T10:35:34.795Z,25.5
2019-06-07T10:36:34.690Z,25.5
2019-06-07T10:37:34.693Z,25.54
2019-06-07T10:38:34.463Z,25.6
2019-06-07T10:39:50.529Z,25.63
2019-06-07T10:40:34.705Z,25.73
2019-06-07T10:41:34.735Z,25.84
2019-06-07T10:42:34.226Z,25.85
2019-06-07T10:43:34.740Z,25.98
2019-06-07T10:44:34.473Z,25.95
2019-06-07T10:45:34.477Z,25.85
2019-06-07T10:46:34.750Z,25.7
2019-06-07T10:47:34.777Z,25.68
2019-06-07T10:48:34.764Z,25.59
2019-06-07T10:49:34.503Z,25.47
2019-06-07T10:50:36.116Z,25.51
2019-06-07T10:51:34.265Z,25.38
2019-06-07T10:52:34.767Z,25.29
2019-06-07T10:53:34.767Z,25.21
2019-06-07T10:54:35.724Z,25.28
2019-06-07T10:55:34.516Z,25.35
2019-06-07T10:56:34.770Z,25.4
2019-06-07T10:57:34.783Z,25.48
2019-06-07T10:58:34.777Z,25.54
2019-06-07T10:59:34.794Z,25.62
2019-06-07T11:00:34.791Z,25.6
2019-06-07T11:01:34.806Z,25.58
2019-06-07T11:02:34.812Z,25.47
2019-06-07T11:03:34.835Z,25.35
2019-06-07T11:04:34.582Z,25.31
2019-06-07T11:05:34.573Z,25.16
2019-06-07T11:06:34.575Z,25.13
2019-06-07T11:07:34.575Z,24.93
2019-06-07T11:08:34.602Z,24.92
2019-06-07T11:09:34.841Z,24.89
2019-06-07T11:10:34.826Z,24.85
2019-06-07T11:11:34.867Z,24.91
2019-06-07T11:12:34.843Z,25.03
2019-06-07T11:13:34.582Z,25.04
2019-06-07T11:14:34.845Z,25.17
2019-06-07T11:15:34.362Z,25.26
2019-06-07T11:16:34.613Z,25.32
2019-06-07T11:17:34.852Z,25.38
2019-06-07T11:18:34.851Z,25.58
2019-06-07T11:19:34.860Z,25.65
2019-06-07T11:20:34.871Z,25.68
2019-06-07T11:21:34.878Z,25.75
2019-06-07T11:22:34.902Z,25.95
2019-06-07T11:23:34.867Z,25.99
2019-06-07T11:24:34.869Z,26.09
2019-06-07T11:25:34.911Z,26.05
2019-06-07T11:26:34.897Z,26.25
2019-06-07T11:27:34.894Z,26.34
2019-06-07T11:28:34.400Z,26.34
2019-06-07T11:29:34.662Z,26.45
2019-06-07T11:30:34.662Z,26.52
2019-06-07T11:31:34.662Z,26.6
2019-06-07T11:32:34.669Z,26.66
2019-06-07T11:33:34.934Z,26.74
2019-06-07T11:34:34.668Z,26.7
2019-06-07T11:35:34.927Z,26.78
2019-06-07T11:36:34.747Z,26.73
2019-06-07T11:37:34.683Z,26.53
2019-06-07T11:38:34.689Z,26.44
2019-06-07T11:39:34.939Z,26.51
2019-06-07T11:40:40.595Z,26.53
2019-06-07T11:41:34.709Z,26.56
2019-06-07T11:42:34.953Z,26.66
2019-06-07T11:43:35.026Z,26.77
2019-06-07T11:44:34.710Z,26.85
2019-06-07T11:45:34.972Z,26.97
2019-06-07T11:46:35.015Z,26.92
2019-06-07T11:47:34.746Z,26.96
2019-06-07T11:48:34.741Z,27.02
2019-06-07T11:49:34.987Z,26.99
2019-06-07T11:50:34.999Z,26.97
2019-06-07T11:51:34.755Z,26.92
2019-06-07T11:52:35.011Z,27.03
2019-06-07T11:53:34.996Z,26.97
2019-06-07T11:54:34.763Z,26.93
2019-06-07T11:55:35.032Z,26.95
2019-06-07T11:56:35.033Z,27
2019-06-07T11:57:35.019Z,26.99
2019-06-07T11:58:35.037Z,27.02
2019-06-07T11:59:34.537Z,26.95
2019-06-07T12:00:39.136Z,26.97
2019-06-07T12:01:37.254Z,26.96
2019-06-07T12:02:35.053Z,26.93
2019-06-07T12:03:35.044Z,26.99
2019-06-07T12:04:39.326Z,26.97
2019-06-07T12:05:34.576Z,26.83
2019-06-07T12:06:34.812Z,26.84
2019-06-07T12:07:34.814Z,26.74
2019-06-07T12:08:35.064Z,26.66
2019-06-07T12:09:35.079Z,26.68
2019-06-07T12:10:46.967Z,26.66
2019-06-07T12:11:34.580Z,26.73
2019-06-07T12:12:35.093Z,26.81
2019-06-07T12:13:35.354Z,26.88
2019-06-07T12:14:35.125Z,26.83
2019-06-07T12:15:35.093Z,26.77
2019-06-07T12:16:35.166Z,26.84
2019-06-07T12:17:35.092Z,26.96
2019-06-07T12:18:35.125Z,26.9
2019-06-07T12:19:34.866Z,26.99
2019-06-07T12:20:34.865Z,27.08
2019-06-07T12:21:34.874Z,27.07
2019-06-07T12:22:35.136Z,27.11
2019-06-07T12:23:34.895Z,27.08
2019-06-07T12:24:35.131Z,27.12
2019-06-07T12:25:34.925Z,27.15
2019-06-07T12:26:35.134Z,27.15
2019-06-07T12:27:35.160Z,27.11
2019-06-07T12:28:35.155Z,27.15
2019-06-07T12:29:38.706Z,27.29
2019-06-07T12:30:34.670Z,27.18
2019-06-07T12:31:35.162Z,27.22
2019-06-07T12:32:35.174Z,27.15
2019-06-07T12:33:35.168Z,27.17
2019-06-07T12:34:35.191Z,27.2
2019-06-07T12:35:35.186Z,27.08
2019-06-07T12:36:35.197Z,27.07
2019-06-07T12:37:48.531Z,26.99
2019-06-07T12:38:34.937Z,27.05
2019-06-07T12:39:35.203Z,27.1
2019-06-07T12:40:37.200Z,27.08
2019-06-07T12:41:35.226Z,27.08
2019-06-07T12:42:35.218Z,27.15
2019-06-07T12:43:34.973Z,27.17
2019-06-07T12:44:35.249Z,27.27
2019-06-07T12:45:49.643Z,27.33
2019-06-07T12:46:34.998Z,27.37
2019-06-07T12:47:35.230Z,27.39
2019-06-07T12:48:35.233Z,27.48
2019-06-07T12:49:34.749Z,27.52
2019-06-07T12:50:47.270Z,27.54
2019-06-07T12:51:36.053Z,27.65
2019-06-07T12:52:35.013Z,27.58
2019-06-07T12:53:35.245Z,27.52
2019-06-07T12:54:35.281Z,27.55
2019-06-07T12:55:34.777Z,27.52
2019-06-07T12:56:35.401Z,27.52
2019-06-07T12:57:35.545Z,27.54
2019-06-07T12:58:42.008Z,27.63
2019-06-07T12:59:35.283Z,27.63
2019-06-07T13:00:35.066Z,27.71
2019-06-07T13:01:35.304Z,27.73
2019-06-07T13:02:34.809Z,27.73
2019-06-07T13:03:35.301Z,27.85
2019-06-07T13:04:35.302Z,27.73